Time;durP1;ratioP1;P1;durP2;ratioP2;P2;SDS_P1;SDS_P2;PMS_P1;PMS_P2;Temp;Humidity;BMP_temperature;BMP_pressure;BME280_temperature;BME280_humidity;BME280_pressure;Samples;Min_cycle;Max_cycle;Signal;HPM_P1;HPM_P2
2023/04/20 00:02:01;;;;;;;5.05;2.00;;;;;;;;;;5011654;28;20055;-75
2023/04/20 00:04:28;;;;;;;5.72;2.03;;;;;;;;;;5043871;28;20057;-75
2023/04/20 00:06:55;;;;;;;6.88;1.95;;;;;;;;;;5021852;28;20841;-75
2023/04/20 00:09:22;;;;;;;5.43;2.03;;;;;;;;;;5020719;28;20058;-75
2023/04/20 00:11:48;;;;;;;6.80;2.30;;;;;;;;;;5023638;28;20049;-75
2023/04/20 00:14:15;;;;;;;4.35;1.98;;;;;;;;;;5023516;28;20061;-76
2023/04/20 00:16:41;;;;;;;7.40;1.92;;;;;;;;;;5013160;28;20136;-75
2023/04/20 00:19:08;;;;;;;5.03;2.28;;;;;;;;;;5027316;28;20057;-75
2023/04/20 00:21:34;;;;;;;6.13;1.98;;;;;;;;;;5041802;28;20412;-76
2023/04/20 00:24:00;;;;;;;5.80;1.98;;;;;;;;;;5023605;28;20054;-75
2023/04/20 00:26:27;;;;;;;5.15;2.03;;;;;;;;;;5014523;28;20049;-75
2023/04/20 00:28:53;;;;;;;5.78;2.15;;;;;;;;;;5029464;28;20058;-75
2023/04/20 00:31:20;;;;;;;5.57;1.85;;;;;;;;;;5021691;28;20057;-75
2023/04/20 00:33:47;;;;;;;4.82;1.90;;;;;;;;;;5028194;28;20548;-75
2023/04/20 00:36:13;;;;;;;6.75;2.20;;;;;;;;;;5042899;28;20064;-75
2023/04/20 00:38:40;;;;;;;5.47;2.38;;;;;;;;;;5023649;28;20054;-75
2023/04/20 00:41:06;;;;;;;5.60;2.17;;;;;;;;;;5004467;28;20061;-75
2023/04/20 00:43:33;;;;;;;5.70;2.25;;;;;;;;;;5021022;28;20867;-75
2023/04/20 00:45:59;;;;;;;10.63;2.20;;;;;;;;;;5012852;28;20054;-75
2023/04/20 00:48:26;;;;;;;5.82;2.28;;;;;;;;;;5002486;28;20062;-75
2023/04/20 00:50:54;;;;;;;7.47;2.20;;;;;;;;;;5015636;28;20120;-75
2023/04/20 00:53:20;;;;;;;4.80;2.20;;;;;;;;;;5023751;28;20896;-75
2023/04/20 00:55:47;;;;;;;5.43;2.25;;;;;;;;;;5043006;28;20064;-75
2023/04/20 00:58:13;;;;;;;5.72;2.33;;;;;;;;;;5021681;28;20081;-75
2023/04/20 01:00:40;;;;;;;5.13;2.28;;;;;;;;;;5023286;28;20054;-75
2023/04/20 01:03:06;;;;;;;8.05;2.55;;;;;;;;;;5019463;28;20088;-76
2023/04/20 01:05:33;;;;;;;6.35;2.55;;;;;;;;;;5036891;28;20065;-75
2023/04/20 01:08:00;;;;;;;4.45;2.33;;;;;;;;;;5023083;28;20054;-75
2023/04/20 01:10:26;;;;;;;4.95;2.17;;;;;;;;;;5029475;28;20066;-75
2023/04/20 01:12:52;;;;;;;6.60;2.65;;;;;;;;;;5033698;28;20045;-74
2023/04/20 01:15:19;;;;;;;4.88;2.47;;;;;;;;;;5042312;28;20053;-75
2023/04/20 01:17:46;;;;;;;7.57;2.55;;;;;;;;;;5029847;28;20508;-75
2023/04/20 01:20:12;;;;;;;7.20;2.72;;;;;;;;;;5009099;28;20061;-75
2023/04/20 01:22:45;;;;;;;6.57;2.50;;;;;;;;;;5005824;28;20058;-75
2023/04/20 01:25:11;;;;;;;5.05;2.50;;;;;;;;;;5014758;28;20117;-76
2023/04/20 01:27:38;;;;;;;7.40;2.83;;;;;;;;;;5019290;28;20837;-75
2023/04/20 01:30:05;;;;;;;6.65;3.00;;;;;;;;;;5014799;28;20058;-75
2023/04/20 01:32:31;;;;;;;5.82;2.72;;;;;;;;;;5017681;28;20916;-75
2023/04/20 01:34:57;;;;;;;6.05;2.70;;;;;;;;;;5003110;28;20500;-75
2023/04/20 01:37:24;;;;;;;5.80;2.53;;;;;;;;;;5017002;28;20504;-75
2023/04/20 01:39:50;;;;;;;7.72;2.60;;;;;;;;;;5022768;28;20054;-75
2023/04/20 01:42:16;;;;;;;5.80;2.42;;;;;;;;;;5008458;28;20055;-75
2023/04/20 01:44:43;;;;;;;5.38;2.28;;;;;;;;;;5020706;28;20540;-75
2023/04/20 01:47:09;;;;;;;8.63;2.78;;;;;;;;;;5028082;28;20058;-75
2023/04/20 01:49:35;;;;;;;6.53;2.92;;;;;;;;;;5043706;28;20076;-75
2023/04/20 01:52:02;;;;;;;10.43;2.65;;;;;;;;;;5012703;28;20054;-75
2023/04/20 01:54:28;;;;;;;6.18;2.85;;;;;;;;;;5012442;28;20054;-75
2023/04/20 01:56:55;;;;;;;6.93;2.70;;;;;;;;;;5008681;28;20054;-75
2023/04/20 01:59:21;;;;;;;5.97;2.78;;;;;;;;;;5005939;28;20050;-75
2023/04/20 02:01:47;;;;;;;5.65;2.53;;;;;;;;;;5036145;28;20452;-75
2023/04/20 02:04:14;;;;;;;5.78;2.47;;;;;;;;;;5024726;28;20145;-75
2023/04/20 02:06:40;;;;;;;5.65;2.60;;;;;;;;;;5023572;28;20701;-75
2023/04/20 02:09:08;;;;;;;8.25;2.60;;;;;;;;;;5026529;28;20057;-75
2023/04/20 02:11:34;;;;;;;4.93;2.50;;;;;;;;;;5026257;28;20046;-75
2023/04/20 02:14:00;;;;;;;6.43;2.65;;;;;;;;;;5020508;28;20057;-74
2023/04/20 02:16:30;;;;;;;6.03;2.80;;;;;;;;;;5036474;28;20060;-75
2023/04/20 02:18:57;;;;;;;5.97;2.70;;;;;;;;;;5036668;28;20074;-75
2023/04/20 02:21:23;;;;;;;5.82;2.60;;;;;;;;;;5025638;28;20095;-75
2023/04/20 02:23:50;;;;;;;7.43;2.80;;;;;;;;;;5023561;28;20058;-75
2023/04/20 02:26:16;;;;;;;5.45;2.80;;;;;;;;;;5025682;28;20484;-75
2023/04/20 02:28:42;;;;;;;5.60;2.90;;;;;;;;;;5024072;28;20610;-75
2023/04/20 02:31:08;;;;;;;6.72;2.53;;;;;;;;;;5025305;28;20064;-75
2023/04/20 02:33:35;;;;;;;5.50;2.40;;;;;;;;;;5024098;28;20082;-75
2023/04/20 02:36:01;;;;;;;5.43;2.83;;;;;;;;;;5031764;28;20128;-75
2023/04/20 02:38:28;;;;;;;6.30;3.25;;;;;;;;;;5024945;28;20603;-75
2023/04/20 02:40:54;;;;;;;7.03;2.70;;;;;;;;;;5025113;28;20064;-75
2023/04/20 02:43:20;;;;;;;6.82;2.72;;;;;;;;;;5016879;28;20062;-75
2023/04/20 02:45:47;;;;;;;7.18;3.00;;;;;;;;;;5014276;28;20105;-75
2023/04/20 02:48:13;;;;;;;5.82;3.10;;;;;;;;;;5017617;28;20109;-75
2023/04/20 02:50:40;;;;;;;6.70;2.50;;;;;;;;;;5010089;28;20109;-75
2023/04/20 02:53:07;;;;;;;7.13;2.72;;;;;;;;;;5031032;28;20431;-75
2023/04/20 02:55:33;;;;;;;8.10;3.30;;;;;;;;;;5006108;28;20219;-75
2023/04/20 02:57:59;;;;;;;6.10;2.75;;;;;;;;;;5016350;28;20606;-75
2023/04/20 03:00:26;;;;;;;5.47;2.42;;;;;;;;;;5021780;28;20054;-75
2023/04/20 03:02:52;;;;;;;6.63;2.45;;;;;;;;;;5006704;28;20073;-75
2023/04/20 03:05:19;;;;;;;7.00;2.90;;;;;;;;;;5004650;28;20050;-75
2023/04/20 03:07:45;;;;;;;5.95;2.78;;;;;;;;;;5011213;28;20085;-75
2023/04/20 03:10:11;;;;;;;8.98;2.78;;;;;;;;;;5025172;28;20061;-75
2023/04/20 03:12:38;;;;;;;6.18;2.80;;;;;;;;;;5023688;28;20588;-75
2023/04/20 03:15:07;;;;;;;5.72;2.60;;;;;;;;;;5024125;28;20059;-75
2023/04/20 03:17:33;;;;;;;10.20;3.00;;;;;;;;;;5044899;28;20045;-75
2023/04/20 03:20:00;;;;;;;5.85;2.63;;;;;;;;;;5023500;28;22313;-75
2023/04/20 03:22:26;;;;;;;5.95;2.60;;;;;;;;;;5009971;28;20050;-75
2023/04/20 03:24:52;;;;;;;7.60;2.70;;;;;;;;;;5005614;28;20050;-75
2023/04/20 03:27:19;;;;;;;6.00;2.80;;;;;;;;;;5031015;28;20057;-75
2023/04/20 03:29:47;;;;;;;6.43;2.80;;;;;;;;;;5044846;28;20061;-75
2023/04/20 03:32:14;;;;;;;10.23;3.03;;;;;;;;;;5015473;28;20054;-75
2023/04/20 03:34:40;;;;;;;8.38;2.95;;;;;;;;;;5035196;28;20571;-75
2023/04/20 03:37:06;;;;;;;8.60;2.80;;;;;;;;;;5005081;28;20065;-75
2023/04/20 03:39:32;;;;;;;7.35;2.80;;;;;;;;;;5011465;28;20543;-75
2023/04/20 03:41:59;;;;;;;6.72;2.67;;;;;;;;;;5019130;28;20054;-75
2023/04/20 03:44:25;;;;;;;6.78;2.92;;;;;;;;;;5030971;28;20164;-75
2023/04/20 03:46:52;;;;;;;9.88;3.10;;;;;;;;;;5024055;28;20072;-76
2023/04/20 03:49:22;;;;;;;5.35;2.83;;;;;;;;;;5023448;28;20100;-75
2023/04/20 03:51:48;;;;;;;7.55;2.70;;;;;;;;;;5035894;28;20054;-75
2023/04/20 03:54:14;;;;;;;7.15;2.50;;;;;;;;;;5004645;28;20509;-75
2023/04/20 03:56:41;;;;;;;5.25;2.35;;;;;;;;;;5029979;28;20574;-75
2023/04/20 03:59:07;;;;;;;6.00;2.50;;;;;;;;;;5024632;28;20880;-75
2023/04/20 04:01:35;;;;;;;9.77;2.80;;;;;;;;;;5026498;28;20054;-75
2023/04/20 04:04:01;;;;;;;8.63;2.72;;;;;;;;;;5031712;28;20465;-75
2023/04/20 04:06:28;;;;;;;7.53;2.50;;;;;;;;;;5009408;28;20058;-75
2023/04/20 04:08:54;;;;;;;7.30;2.55;;;;;;;;;;5010936;28;20217;-75
2023/04/20 04:11:21;;;;;;;5.85;2.13;;;;;;;;;;5014438;28;20050;-78
2023/04/20 04:13:48;;;;;;;7.18;2.50;;;;;;;;;;5018129;28;20596;-76
2023/04/20 04:16:14;;;;;;;9.63;3.08;;;;;;;;;;5035246;28;20235;-76
2023/04/20 04:18:42;;;;;;;7.13;2.50;;;;;;;;;;5044076;28;20060;-76
2023/04/20 04:21:09;;;;;;;9.25;2.45;;;;;;;;;;5035419;28;20125;-76
2023/04/20 04:23:36;;;;;;;5.97;2.30;;;;;;;;;;5031502;28;20064;-76
2023/04/20 04:26:03;;;;;;;11.55;2.30;;;;;;;;;;5024403;28;20057;-76
2023/04/20 04:28:30;;;;;;;6.07;2.33;;;;;;;;;;5023885;28;20081;-76
2023/04/20 04:30:56;;;;;;;7.75;2.60;;;;;;;;;;5024143;28;20062;-76
2023/04/20 04:33:24;;;;;;;9.07;2.70;;;;;;;;;;5024590;28;20058;-76
2023/04/20 04:35:52;;;;;;;6.13;2.40;;;;;;;;;;5043416;28;20524;-76
2023/04/20 04:38:18;;;;;;;6.65;2.85;;;;;;;;;;5027915;28;20081;-76
2023/04/20 04:40:45;;;;;;;7.00;2.30;;;;;;;;;;5024086;28;20050;-77
2023/04/20 04:43:11;;;;;;;5.38;2.55;;;;;;;;;;5028410;28;20050;-76
2023/04/20 04:45:39;;;;;;;9.05;2.65;;;;;;;;;;5022534;28;20050;-76
2023/04/20 04:48:08;;;;;;;7.25;2.30;;;;;;;;;;5023858;28;20881;-76
2023/04/20 04:50:35;;;;;;;6.72;2.40;;;;;;;;;;5022202;28;20568;-76
2023/04/20 04:53:04;;;;;;;5.63;2.38;;;;;;;;;;5032083;28;20132;-76
2023/04/20 04:55:30;;;;;;;5.55;2.40;;;;;;;;;;5028965;28;20053;-76
2023/04/20 04:57:57;;;;;;;7.00;2.40;;;;;;;;;;5023462;28;20145;-76
2023/04/20 05:00:24;;;;;;;10.27;2.30;;;;;;;;;;5023708;28;20453;-76
2023/04/20 05:02:51;;;;;;;6.63;2.50;;;;;;;;;;5020782;28;20058;-76
2023/04/20 05:05:21;;;;;;;4.72;2.00;;;;;;;;;;5024220;28;20101;-77
2023/04/20 05:07:47;;;;;;;6.65;2.30;;;;;;;;;;5020730;28;20064;-76
2023/04/20 05:10:16;;;;;;;7.95;2.53;;;;;;;;;;5023375;28;20050;-76
2023/04/20 05:12:43;;;;;;;6.50;2.30;;;;;;;;;;5023180;28;20054;-76
2023/04/20 05:15:09;;;;;;;6.72;2.47;;;;;;;;;;5023517;28;20057;-76
2023/04/20 05:17:36;;;;;;;7.53;2.40;;;;;;;;;;5016987;28;20057;-76
2023/04/20 05:20:05;;;;;;;5.57;2.58;;;;;;;;;;5023105;28;20058;-76
2023/04/20 05:22:31;;;;;;;7.78;2.78;;;;;;;;;;5021152;28;20550;-76
2023/04/20 05:24:58;;;;;;;7.85;2.72;;;;;;;;;;5023511;28;20492;-75
2023/04/20 05:27:24;;;;;;;6.35;2.45;;;;;;;;;;5019215;28;20065;-75
2023/04/20 05:29:50;;;;;;;7.72;2.40;;;;;;;;;;5027903;28;20056;-74
2023/04/20 05:32:17;;;;;;;6.40;2.30;;;;;;;;;;5046528;28;20057;-75
2023/04/20 05:34:43;;;;;;;4.50;2.35;;;;;;;;;;5038377;28;20501;-75
2023/04/20 05:37:10;;;;;;;5.78;2.42;;;;;;;;;;5025822;28;20050;-75
2023/04/20 05:39:37;;;;;;;5.03;2.08;;;;;;;;;;5026472;28;20086;-75
2023/04/20 05:42:03;;;;;;;7.43;2.72;;;;;;;;;;5026525;28;20136;-75
2023/04/20 05:44:29;;;;;;;7.45;2.45;;;;;;;;;;5025751;28;20049;-75
2023/04/20 05:46:56;;;;;;;6.63;2.58;;;;;;;;;;5045255;28;20060;-75
2023/04/20 05:49:22;;;;;;;4.35;1.90;;;;;;;;;;5045423;28;20057;-75
2023/04/20 05:51:49;;;;;;;10.73;2.30;;;;;;;;;;5044752;28;20084;-75
2023/04/20 05:54:16;;;;;;;6.32;2.70;;;;;;;;;;5046341;28;20460;-74
2023/04/20 05:56:42;;;;;;;6.32;2.35;;;;;;;;;;5020691;28;20492;-75
2023/04/20 05:59:09;;;;;;;5.22;2.30;;;;;;;;;;5015221;28;20053;-75
2023/04/20 06:01:35;;;;;;;6.82;2.30;;;;;;;;;;5019805;28;20068;-75
2023/04/20 06:04:01;;;;;;;9.18;2.40;;;;;;;;;;5026301;28;20128;-75
2023/04/20 06:06:28;;;;;;;5.82;2.20;;;;;;;;;;5026019;28;20132;-75
2023/04/20 06:08:56;;;;;;;7.07;2.70;;;;;;;;;;5022498;28;20108;-75
2023/04/20 06:11:23;;;;;;;9.07;2.60;;;;;;;;;;5015769;28;20472;-75
2023/04/20 06:13:49;;;;;;;4.57;2.20;;;;;;;;;;5040495;28;20062;-74
2023/04/20 06:16:16;;;;;;;7.00;2.55;;;;;;;;;;5026409;28;20050;-75
2023/04/20 06:18:42;;;;;;;8.85;2.92;;;;;;;;;;5018518;28;20953;-75
2023/04/20 06:21:09;;;;;;;6.57;2.70;;;;;;;;;;5006889;28;20061;-75
2023/04/20 06:23:36;;;;;;;5.10;2.38;;;;;;;;;;5020353;28;20050;-75
2023/04/20 06:26:03;;;;;;;5.30;2.58;;;;;;;;;;5025054;28;20144;-75
2023/04/20 06:28:30;;;;;;;8.02;2.80;;;;;;;;;;5017045;28;20053;-75
2023/04/20 06:30:56;;;;;;;8.30;2.38;;;;;;;;;;5025509;28;20054;-75
2023/04/20 06:33:22;;;;;;;8.25;2.67;;;;;;;;;;5025774;28;20057;-75
2023/04/20 06:35:50;;;;;;;11.95;2.70;;;;;;;;;;5025601;28;20046;-75
2023/04/20 06:38:16;;;;;;;7.10;2.33;;;;;;;;;;5015823;28;20054;-75
2023/04/20 06:40:43;;;;;;;7.55;2.33;;;;;;;;;;5006579;28;20097;-75
2023/04/20 06:43:09;;;;;;;5.78;2.38;;;;;;;;;;5005996;28;20055;-74
2023/04/20 06:45:35;;;;;;;7.13;2.55;;;;;;;;;;5005849;28;20509;-75
2023/04/20 06:48:02;;;;;;;4.85;2.45;;;;;;;;;;5011787;28;20055;-75
2023/04/20 06:50:28;;;;;;;8.15;3.00;;;;;;;;;;5025994;28;20101;-75
2023/04/20 06:52:55;;;;;;;9.43;2.80;;;;;;;;;;5024980;28;20060;-75
2023/04/20 06:55:21;;;;;;;7.50;2.95;;;;;;;;;;5025306;28;20061;-75
2023/04/20 06:57:47;;;;;;;9.82;3.60;;;;;;;;;;5020853;28;20062;-75
2023/04/20 07:00:14;;;;;;;9.70;3.22;;;;;;;;;;5017287;28;20058;-75
2023/04/20 07:02:44;;;;;;;6.85;2.83;;;;;;;;;;5014713;28;20152;-75
2023/04/20 07:05:11;;;;;;;5.53;2.58;;;;;;;;;;5044732;28;20099;-75
2023/04/20 07:07:38;;;;;;;8.98;2.80;;;;;;;;;;5042029;28;20049;-76
2023/04/20 07:10:06;;;;;;;10.25;2.88;;;;;;;;;;5024067;28;20054;-75
2023/04/20 07:12:33;;;;;;;5.40;2.63;;;;;;;;;;5025395;28;20061;-76
2023/04/20 07:15:00;;;;;;;6.18;2.92;;;;;;;;;;5025206;28;20128;-76
2023/04/20 07:17:28;;;;;;;5.93;2.47;;;;;;;;;;5022252;28;20054;-75
2023/04/20 07:19:55;;;;;;;6.45;2.40;;;;;;;;;;5026939;28;20065;-75
2023/04/20 07:22:21;;;;;;;7.95;2.92;;;;;;;;;;5027907;28;20154;-76
2023/04/20 07:24:48;;;;;;;6.38;2.75;;;;;;;;;;5011641;28;20050;-76
2023/04/20 07:27:14;;;;;;;5.80;2.30;;;;;;;;;;5039099;28;20431;-76
2023/04/20 07:29:40;;;;;;;11.05;2.85;;;;;;;;;;5035114;28;20464;-76
2023/04/20 07:32:07;;;;;;;11.02;2.72;;;;;;;;;;5019401;28;20520;-76
2023/04/20 07:34:33;;;;;;;8.02;2.83;;;;;;;;;;5010391;28;20070;-75
2023/04/20 07:37:00;;;;;;;10.18;2.85;;;;;;;;;;5011064;28;20057;-77
2023/04/20 07:39:29;;;;;;;7.97;2.78;;;;;;;;;;5020904;28;20164;-77
2023/04/20 07:41:55;;;;;;;8.82;3.15;;;;;;;;;;5035881;28;20057;-77
2023/04/20 07:44:22;;;;;;;7.55;3.13;;;;;;;;;;5021186;28;20132;-77
2023/04/20 07:46:48;;;;;;;5.13;2.38;;;;;;;;;;5024886;28;20061;-76
2023/04/20 07:49:15;;;;;;;8.93;2.70;;;;;;;;;;5023285;28;20049;-76
2023/04/20 07:51:42;;;;;;;7.35;2.90;;;;;;;;;;5024209;28;20132;-76
2023/04/20 07:54:08;;;;;;;7.50;2.58;;;;;;;;;;5023912;28;20058;-76
2023/04/20 07:56:34;;;;;;;5.93;2.80;;;;;;;;;;5024434;28;20050;-76
2023/04/20 07:59:01;;;;;;;8.80;2.97;;;;;;;;;;5027620;28;20112;-77
2023/04/20 08:01:27;;;;;;;7.28;3.10;;;;;;;;;;5035073;28;20436;-76
2023/04/20 08:03:54;;;;;;;8.07;3.30;;;;;;;;;;5026234;28;20054;-76
2023/04/20 08:06:21;;;;;;;8.02;3.00;;;;;;;;;;5022999;28;20548;-77
2023/04/20 08:08:47;;;;;;;7.07;2.70;;;;;;;;;;5005796;28;20054;-76
2023/04/20 08:11:14;;;;;;;7.60;2.80;;;;;;;;;;5004161;28;20054;-77
2023/04/20 08:13:40;;;;;;;5.95;2.70;;;;;;;;;;5012689;28;20057;-76
2023/04/20 08:16:07;;;;;;;10.52;2.92;;;;;;;;;;5023318;28;20135;-76
2023/04/20 08:18:33;;;;;;;7.85;2.53;;;;;;;;;;5043261;28;20107;-77
2023/04/20 08:20:59;;;;;;;7.35;2.72;;;;;;;;;;5034058;28;20065;-77
2023/04/20 08:23:29;;;;;;;7.65;2.80;;;;;;;;;;5014029;28;20089;-77
2023/04/20 08:25:55;;;;;;;4.95;2.20;;;;;;;;;;5021479;28;20065;-77
2023/04/20 08:28:22;;;;;;;5.40;2.58;;;;;;;;;;5015526;28;20062;-77
2023/04/20 08:30:59;;;;;;;5.60;2.88;;;;;;;;;;5040087;28;20054;-77
2023/04/20 08:33:26;;;;;;;7.05;3.30;;;;;;;;;;5023894;28;20090;-77
2023/04/20 08:35:52;;;;;;;6.18;2.83;;;;;;;;;;5021831;28;20092;-77
2023/04/20 08:38:20;;;;;;;5.78;2.70;;;;;;;;;;5021790;28;20054;-77
2023/04/20 08:40:58;;;;;;;7.32;2.75;;;;;;;;;;5010445;28;20058;-76
2023/04/20 08:43:25;;;;;;;6.45;2.75;;;;;;;;;;5025655;28;20058;-77
2023/04/20 08:45:54;;;;;;;6.63;3.10;;;;;;;;;;5022783;28;20176;-76
2023/04/20 08:48:20;;;;;;;6.35;3.00;;;;;;;;;;5023148;28;20155;-76
2023/04/20 08:50:47;;;;;;;6.55;3.13;;;;;;;;;;5030693;28;20062;-76
2023/04/20 08:53:13;;;;;;;7.80;3.38;;;;;;;;;;5021367;28;20057;-76
2023/04/20 08:55:39;;;;;;;5.63;3.08;;;;;;;;;;5018171;28;20050;-75
2023/04/20 08:58:06;;;;;;;8.35;3.20;;;;;;;;;;5026635;28;20049;-77
2023/04/20 09:00:32;;;;;;;8.40;3.38;;;;;;;;;;5021826;28;20068;-77
2023/04/20 09:03:00;;;;;;;11.15;3.45;;;;;;;;;;5011334;28;20054;-77
2023/04/20 09:05:28;;;;;;;7.97;3.47;;;;;;;;;;5023082;28;20147;-76
2023/04/20 09:07:57;;;;;;;7.38;3.55;;;;;;;;;;5041798;28;20061;-77
2023/04/20 09:10:24;;;;;;;8.20;3.47;;;;;;;;;;5043149;28;20139;-77
2023/04/20 09:12:51;;;;;;;7.63;3.20;;;;;;;;;;5042548;28;20053;-76
2023/04/20 09:15:24;;;;;;;7.15;3.15;;;;;;;;;;5033001;28;20054;-77
2023/04/20 09:17:51;;;;;;;7.30;3.35;;;;;;;;;;5029657;28;20058;-76
2023/04/20 09:20:27;;;;;;;7.13;3.60;;;;;;;;;;5019155;28;20080;-76
2023/04/20 09:22:54;;;;;;;9.15;3.65;;;;;;;;;;5030999;28;20046;-76
2023/04/20 09:25:20;;;;;;;8.70;3.80;;;;;;;;;;5015233;28;20122;-76
2023/04/20 09:28:00;;;;;;;7.43;3.58;;;;;;;;;;5019811;28;20046;-76
2023/04/20 09:30:37;;;;;;;8.25;3.60;;;;;;;;;;5015201;28;20058;-76
2023/04/20 09:33:03;;;;;;;8.25;3.60;;;;;;;;;;5015700;28;20056;-76
2023/04/20 09:35:30;;;;;;;10.18;3.83;;;;;;;;;;5007096;28;20056;-76
2023/04/20 09:37:56;;;;;;;6.68;3.75;;;;;;;;;;5009308;28;20061;-77
2023/04/20 09:40:26;;;;;;;7.32;3.60;;;;;;;;;;5018975;28;20520;-76
2023/04/20 09:42:53;;;;;;;10.77;3.58;;;;;;;;;;5011501;28;20046;-76
2023/04/20 09:45:20;;;;;;;7.47;3.50;;;;;;;;;;5021268;28;20054;-77
2023/04/20 09:47:48;;;;;;;6.20;3.60;;;;;;;;;;5016124;28;20428;-76
2023/04/20 09:50:15;;;;;;;7.18;3.67;;;;;;;;;;5006237;28;20145;-77
2023/04/20 09:52:55;;;;;;;6.25;3.22;;;;;;;;;;5021556;28;20058;-76
2023/04/20 09:55:23;;;;;;;6.93;3.72;;;;;;;;;;5013144;28;20069;-77
2023/04/20 09:57:50;;;;;;;8.57;4.00;;;;;;;;;;5028030;28;20546;-77
2023/04/20 10:00:16;;;;;;;5.75;3.58;;;;;;;;;;5020226;28;20054;-76
2023/04/20 10:02:45;;;;;;;8.07;3.80;;;;;;;;;;5010090;28;20049;-77
2023/04/20 10:05:11;;;;;;;6.70;3.60;;;;;;;;;;5004835;28;20060;-76
2023/04/20 10:07:38;;;;;;;7.03;4.00;;;;;;;;;;5002196;28;20058;-76
2023/04/20 10:10:12;;;;;;;7.35;3.50;;;;;;;;;;5010880;28;20085;-76
2023/04/20 10:12:48;;;;;;;5.90;3.63;;;;;;;;;;5020937;28;21082;-75
2023/04/20 10:15:15;;;;;;;7.78;3.75;;;;;;;;;;5016196;28;20879;-75
2023/04/20 10:17:42;;;;;;;6.05;3.70;;;;;;;;;;5025049;28;20049;-76
2023/04/20 10:20:25;;;;;;;7.72;3.80;;;;;;;;;;5019599;28;20085;-76
2023/04/20 10:22:52;;;;;;;8.18;3.90;;;;;;;;;;5009851;28;20137;-76
2023/04/20 10:25:21;;;;;;;9.73;4.32;;;;;;;;;;5020638;28;20462;-75
2023/04/20 10:27:51;;;;;;;8.50;3.83;;;;;;;;;;5021997;28;20060;-76
2023/04/20 10:30:18;;;;;;;7.72;3.63;;;;;;;;;;5031586;28;20058;-76
2023/04/20 10:32:44;;;;;;;6.25;3.40;;;;;;;;;;5039728;28;20579;-76
2023/04/20 10:35:12;;;;;;;8.57;4.57;;;;;;;;;;5026083;28;20148;-76
2023/04/20 10:37:49;;;;;;;8.90;4.38;;;;;;;;;;5023629;28;20058;-76
2023/04/20 10:40:16;;;;;;;7.20;3.78;;;;;;;;;;5024912;28;20049;-76
2023/04/20 10:42:43;;;;;;;9.13;4.35;;;;;;;;;;5025413;28;20050;-75
2023/04/20 10:45:12;;;;;;;7.43;3.90;;;;;;;;;;5019091;28;20137;-76
2023/04/20 10:47:43;;;;;;;9.93;4.15;;;;;;;;;;5007965;28;20464;-76
2023/04/20 10:50:12;;;;;;;8.27;3.95;;;;;;;;;;5032898;28;20939;-76
2023/04/20 10:52:39;;;;;;;8.80;3.90;;;;;;;;;;5004376;28;20863;-76
2023/04/20 10:55:16;;;;;;;6.93;3.80;;;;;;;;;;5009719;28;20050;-75
2023/04/20 10:57:46;;;;;;;9.07;4.05;;;;;;;;;;5015633;28;20161;-75
2023/04/20 11:00:16;;;;;;;7.87;3.80;;;;;;;;;;5004692;28;20137;-76
2023/04/20 11:02:52;;;;;;;9.15;3.70;;;;;;;;;;5007515;28;21055;-75
2023/04/20 11:05:20;;;;;;;6.90;3.75;;;;;;;;;;5011858;28;20457;-76
2023/04/20 11:07:49;;;;;;;6.28;3.80;;;;;;;;;;5017236;28;20238;-75
2023/04/20 11:10:15;;;;;;;6.57;3.38;;;;;;;;;;5036716;28;20057;-76
2023/04/20 11:12:42;;;;;;;7.18;4.20;;;;;;;;;;5035185;28;20053;-76
2023/04/20 11:15:08;;;;;;;7.80;3.65;;;;;;;;;;5019565;28;20515;-77
2023/04/20 11:17:35;;;;;;;6.70;3.42;;;;;;;;;;5021190;28;20061;-76
2023/04/20 11:20:07;;;;;;;6.28;3.30;;;;;;;;;;5024560;28;20054;-74
2023/04/20 11:22:34;;;;;;;7.40;3.35;;;;;;;;;;5011464;28;20135;-76
2023/04/20 11:25:08;;;;;;;6.65;3.53;;;;;;;;;;5004934;28;20524;-76
2023/04/20 11:27:34;;;;;;;6.32;3.10;;;;;;;;;;5008882;28;20065;-76
2023/04/20 11:30:04;;;;;;;6.53;3.05;;;;;;;;;;5008132;28;20061;-77
2023/04/20 11:32:34;;;;;;;5.88;2.72;;;;;;;;;;5018793;28;20931;-76
2023/04/20 11:35:04;;;;;;;5.93;3.10;;;;;;;;;;5021731;28;20066;-76
2023/04/20 11:37:33;;;;;;;8.38;3.22;;;;;;;;;;5011107;28;20109;-77
2023/04/20 11:40:00;;;;;;;7.50;3.45;;;;;;;;;;5019605;28;20061;-76
2023/04/20 11:42:27;;;;;;;9.30;3.22;;;;;;;;;;5008101;28;20058;-77
2023/04/20 11:44:53;;;;;;;9.27;3.30;;;;;;;;;;5020365;28;20853;-77
2023/04/20 11:47:20;;;;;;;6.32;3.17;;;;;;;;;;5018166;28;20068;-77
2023/04/20 11:49:46;;;;;;;7.45;2.80;;;;;;;;;;5013835;28;20054;-78
2023/04/20 11:52:13;;;;;;;7.50;3.03;;;;;;;;;;5024897;28;21257;-77
2023/04/20 11:54:39;;;;;;;6.30;2.70;;;;;;;;;;5037966;28;20057;-77
2023/04/20 11:57:06;;;;;;;5.97;3.03;;;;;;;;;;5043988;28;20041;-77
2023/04/20 11:59:32;;;;;;;8.80;2.92;;;;;;;;;;5043347;28;20515;-77
2023/04/20 12:02:02;;;;;;;6.97;3.42;;;;;;;;;;5043516;28;20529;-77
2023/04/20 12:04:30;;;;;;;8.15;3.60;;;;;;;;;;5039847;28;20057;-77
2023/04/20 12:07:01;;;;;;;7.25;3.42;;;;;;;;;;5008326;28;20789;-77
2023/04/20 12:09:29;;;;;;;6.40;3.08;;;;;;;;;;5023766;28;20045;-77
2023/04/20 12:11:56;;;;;;;8.25;3.30;;;;;;;;;;5022782;28;20143;-77
2023/04/20 12:14:22;;;;;;;8.43;3.50;;;;;;;;;;5034832;28;20053;-77
2023/04/20 12:16:49;;;;;;;6.65;3.10;;;;;;;;;;5040110;28;20586;-77
2023/04/20 12:19:15;;;;;;;9.43;3.38;;;;;;;;;;5021872;28;20238;-77
2023/04/20 12:21:42;;;;;;;6.70;3.42;;;;;;;;;;5022207;28;20054;-77
2023/04/20 12:24:08;;;;;;;9.40;3.63;;;;;;;;;;5025671;28;21087;-77
2023/04/20 12:26:35;;;;;;;7.65;3.55;;;;;;;;;;5005063;28;20058;-76
2023/04/20 12:29:04;;;;;;;8.50;3.25;;;;;;;;;;5040765;28;20144;-76
2023/04/20 12:31:30;;;;;;;8.32;3.60;;;;;;;;;;5043283;28;20084;-77
2023/04/20 12:33:57;;;;;;;7.20;3.40;;;;;;;;;;5025788;28;20139;-77
2023/04/20 12:36:23;;;;;;;8.77;3.55;;;;;;;;;;5038441;28;20053;-77
2023/04/20 12:38:51;;;;;;;9.57;3.90;;;;;;;;;;5039755;28;20053;-77
2023/04/20 12:41:17;;;;;;;8.98;3.53;;;;;;;;;;5003750;28;20052;-77
2023/04/20 12:43:44;;;;;;;11.55;3.60;;;;;;;;;;5011110;28;20641;-77
2023/04/20 12:46:10;;;;;;;8.32;3.97;;;;;;;;;;5038118;28;20065;-77
2023/04/20 12:48:36;;;;;;;8.15;3.80;;;;;;;;;;5034287;28;20512;-77
2023/04/20 12:51:03;;;;;;;7.38;3.40;;;;;;;;;;5024939;28;20433;-77
2023/04/20 12:53:29;;;;;;;6.57;3.63;;;;;;;;;;5024043;28;20237;-77
2023/04/20 12:55:55;;;;;;;8.52;4.25;;;;;;;;;;5021388;28;20081;-77
2023/04/20 12:58:26;;;;;;;10.32;4.45;;;;;;;;;;5022750;28;20501;-77
2023/04/20 13:00:53;;;;;;;7.22;4.15;;;;;;;;;;5027379;28;20068;-77
2023/04/20 13:03:19;;;;;;;11.02;4.05;;;;;;;;;;5016875;28;20810;-77
2023/04/20 13:05:46;;;;;;;7.43;3.65;;;;;;;;;;5020253;28;20065;-77
2023/04/20 13:08:13;;;;;;;8.80;3.92;;;;;;;;;;5013560;28;20066;-77
2023/04/20 13:10:41;;;;;;;6.22;3.38;;;;;;;;;;5020991;28;20161;-77
2023/04/20 13:13:09;;;;;;;8.90;4.07;;;;;;;;;;5026858;28;20073;-77
2023/04/20 13:15:35;;;;;;;6.93;3.80;;;;;;;;;;5023218;28;20928;-77
2023/04/20 13:18:05;;;;;;;9.73;4.22;;;;;;;;;;5026562;28;20055;-76
2023/04/20 13:20:31;;;;;;;7.60;3.90;;;;;;;;;;5039120;28;20156;-77
2023/04/20 13:22:59;;;;;;;10.48;4.03;;;;;;;;;;5040715;28;20162;-77
2023/04/20 13:25:26;;;;;;;8.18;3.88;;;;;;;;;;5013206;28;20061;-77
2023/04/20 13:27:53;;;;;;;8.75;4.10;;;;;;;;;;5017203;28;20054;-77
2023/04/20 13:30:20;;;;;;;7.93;4.20;;;;;;;;;;5015431;28;20053;-77
2023/04/20 13:32:49;;;;;;;9.30;4.32;;;;;;;;;;5031446;28;20062;-77
2023/04/20 13:35:16;;;;;;;9.45;4.07;;;;;;;;;;5023178;28;20526;-78
2023/04/20 13:37:43;;;;;;;7.80;4.03;;;;;;;;;;5021880;28;20065;-77
2023/04/20 13:40:10;;;;;;;11.73;5.03;;;;;;;;;;5041024;28;20507;-77
2023/04/20 13:42:36;;;;;;;7.00;4.00;;;;;;;;;;5024981;28;20061;-77
2023/04/20 13:45:03;;;;;;;10.02;4.28;;;;;;;;;;5024108;28;20467;-77
2023/04/20 13:47:30;;;;;;;8.20;4.20;;;;;;;;;;5018392;28;20047;-78
2023/04/20 13:49:56;;;;;;;9.50;4.50;;;;;;;;;;5023136;28;20165;-77
2023/04/20 13:52:23;;;;;;;7.70;3.58;;;;;;;;;;5019307;28;20057;-77
2023/04/20 13:54:49;;;;;;;8.30;4.00;;;;;;;;;;5031072;28;20061;-77
2023/04/20 13:57:16;;;;;;;6.80;3.55;;;;;;;;;;5022575;28;21069;-77
2023/04/20 13:59:42;;;;;;;9.68;4.00;;;;;;;;;;5034688;28;20522;-77
2023/04/20 14:02:08;;;;;;;7.20;3.70;;;;;;;;;;5033301;28;20162;-77
2023/04/20 14:04:35;;;;;;;9.18;4.57;;;;;;;;;;5017677;28;20086;-77
2023/04/20 14:07:02;;;;;;;8.38;4.47;;;;;;;;;;5012283;28;20062;-77
2023/04/20 14:09:30;;;;;;;9.45;4.43;;;;;;;;;;5028445;28;20057;-77
2023/04/20 14:11:56;;;;;;;7.40;4.40;;;;;;;;;;5045655;28;20053;-77
2023/04/20 14:14:23;;;;;;;7.35;4.07;;;;;;;;;;5037055;28;20061;-77
2023/04/20 14:16:50;;;;;;;10.55;4.70;;;;;;;;;;5040698;28;20136;-77
2023/04/20 14:19:16;;;;;;;8.18;4.25;;;;;;;;;;5023588;28;20151;-77
2023/04/20 14:21:45;;;;;;;8.55;4.18;;;;;;;;;;5027589;28;20137;-77
2023/04/20 14:24:12;;;;;;;8.98;4.63;;;;;;;;;;5025242;28;20097;-77
2023/04/20 14:26:39;;;;;;;8.60;3.97;;;;;;;;;;5023934;28;20087;-77
2023/04/20 14:29:06;;;;;;;9.10;4.32;;;;;;;;;;5035734;28;20056;-77
2023/04/20 14:31:33;;;;;;;12.80;4.60;;;;;;;;;;5034396;28;20096;-77
2023/04/20 14:34:00;;;;;;;8.75;4.82;;;;;;;;;;5025136;28;20065;-77
2023/04/20 14:36:26;;;;;;;8.57;5.03;;;;;;;;;;5014931;28;20116;-77
2023/04/20 14:38:56;;;;;;;7.85;4.63;;;;;;;;;;5017743;28;20141;-77
2023/04/20 14:41:23;;;;;;;10.45;5.18;;;;;;;;;;5022328;28;20053;-77
2023/04/20 14:43:50;;;;;;;8.27;4.82;;;;;;;;;;5036268;28;20144;-77